createdAt,value
2023-06-11T00:01:31.148Z,90863.34
2023-06-11T00:03:58.554Z,90857.16
2023-06-11T00:06:25.618Z,90859.59
2023-06-11T00:08:53.942Z,90869.47
2023-06-11T00:11:22.579Z,90865.50
2023-06-11T00:13:50.684Z,90857.84
2023-06-11T00:16:18.190Z,90858.66
2023-06-11T00:18:44.911Z,90857.06
2023-06-11T00:21:13.623Z,90865.25
2023-06-11T00:23:40.477Z,90854.75
2023-06-11T00:26:10.834Z,90863.34
2023-06-11T00:28:37.602Z,90863.13
2023-06-11T00:31:07.510Z,90862.66
2023-06-11T00:33:34.420Z,90858.97
2023-06-11T00:36:01.969Z,90861.81
2023-06-11T00:38:30.173Z,90860.31
2023-06-11T00:40:57.011Z,90861.00
2023-06-11T00:43:25.024Z,90862.56
2023-06-11T00:45:52.438Z,90862.41
2023-06-11T00:48:23.365Z,90858.59
2023-06-11T00:50:51.573Z,90860.94
2023-06-11T00:53:20.126Z,90860.16
2023-06-11T00:55:47.330Z,90858.81
2023-06-11T00:58:16.615Z,90870.84
2023-06-11T01:00:46.720Z,90876.78
2023-06-11T01:03:18.678Z,90872.06
2023-06-11T01:06:03.871Z,90875.03
2023-06-11T01:08:40.471Z,90874.91
2023-06-11T01:11:22.648Z,90879.28
2023-06-11T01:13:49.774Z,90870.28
2023-06-11T01:16:38.479Z,90875.50
2023-06-11T01:19:30.855Z,90872.88
2023-06-11T01:22:35.068Z,90874.81
2023-06-11T01:25:26.436Z,90872.47
2023-06-11T01:28:05.712Z,90871.97
2023-06-11T01:30:39.078Z,90868.22
2023-06-11T01:33:15.537Z,90870.13
2023-06-11T01:35:43.232Z,90873.06
2023-06-11T01:38:10.209Z,90874.69
2023-06-11T01:40:37.218Z,90867.47
2023-06-11T01:43:03.931Z,90878.59
2023-06-11T01:45:38.461Z,90871.94
2023-06-11T01:48:06.566Z,90871.41
2023-06-11T01:50:34.573Z,90866.09
2023-06-11T01:53:01.934Z,90861.97
2023-06-11T01:55:28.645Z,90868.72
2023-06-11T01:57:55.301Z,90872.06
2023-06-11T02:00:22.160Z,90873.69
2023-06-11T02:02:49.890Z,90873.84
2023-06-11T02:05:16.969Z,90862.41
2023-06-11T02:07:43.756Z,90881.97
2023-06-11T02:10:11.121Z,90873.91
2023-06-11T02:12:44.755Z,90874.72
2023-06-11T02:15:14.904Z,90874.25
2023-06-11T02:17:43.141Z,90877.22
2023-06-11T02:20:10.437Z,90879.41
2023-06-11T02:22:37.169Z,90876.38
2023-06-11T02:25:04.382Z,90872.63
2023-06-11T02:27:31.304Z,90869.59
2023-06-11T02:29:58.522Z,90874.41
2023-06-11T02:32:25.476Z,90872.88
2023-06-11T02:34:52.245Z,90888.25
2023-06-11T02:37:19.093Z,90879.16
2023-06-11T02:39:46.469Z,90879.16
2023-06-11T02:42:13.284Z,90882.63
2023-06-11T02:44:41.026Z,90878.59
2023-06-11T02:47:13.750Z,90869.75
2023-06-11T02:49:40.458Z,90881.81
2023-06-11T02:52:07.935Z,90881.06
2023-06-11T02:54:34.654Z,90878.72
2023-06-11T02:57:01.508Z,90882.91
2023-06-11T02:59:28.228Z,90880.91
2023-06-11T03:01:56.126Z,90882.28
2023-06-11T03:04:23.088Z,90872.47
2023-06-11T03:06:49.858Z,90853.81
2023-06-11T03:09:16.606Z,90877.31
2023-06-11T03:11:43.316Z,90883.41
2023-06-11T03:14:10.202Z,90880.91
2023-06-11T03:16:37.088Z,90885.66
2023-06-11T03:19:03.894Z,90855.88
2023-06-11T03:21:30.955Z,90886.06
2023-06-11T03:23:57.838Z,90886.69
2023-06-11T03:26:25.625Z,90885.06
2023-06-11T03:28:57.444Z,90894.38
2023-06-11T03:31:24.335Z,90890.06
2023-06-11T03:33:51.128Z,90890.91
2023-06-11T03:36:17.906Z,90878.91
2023-06-11T03:38:44.637Z,90892.00
2023-06-11T03:41:11.363Z,90886.00
2023-06-11T03:43:38.117Z,90864.88
2023-06-11T03:46:04.879Z,90879.09
2023-06-11T03:48:31.630Z,90888.69
2023-06-11T03:50:58.426Z,90888.06
2023-06-11T03:53:25.160Z,90887.00
2023-06-11T03:55:51.840Z,90887.47
2023-06-11T03:58:18.606Z,90891.72
2023-06-11T04:00:45.493Z,90890.34
2023-06-11T04:03:12.286Z,90893.94
2023-06-11T04:05:39.120Z,90892.66
2023-06-11T04:08:05.964Z,90896.25
2023-06-11T04:10:33.262Z,90892.34
2023-06-11T04:13:00.245Z,90896.25
2023-06-11T04:15:27.149Z,90899.25
2023-06-11T04:17:54.036Z,90895.59
2023-06-11T04:20:21.134Z,90891.56
2023-06-11T04:22:47.795Z,90894.78
2023-06-11T04:25:15.072Z,90884.53
2023-06-11T04:27:41.863Z,90894.97
2023-06-11T04:30:10.334Z,90891.41
2023-06-11T04:32:38.383Z,90892.84
2023-06-11T04:35:05.875Z,90896.13
2023-06-11T04:37:39.222Z,90891.31
2023-06-11T04:40:10.917Z,90894.97
2023-06-11T04:42:43.724Z,90897.22
2023-06-11T04:45:12.097Z,90899.31
2023-06-11T04:47:39.556Z,90899.94
2023-06-11T04:50:07.673Z,90897.97
2023-06-11T04:52:44.480Z,90891.00
2023-06-11T04:55:13.501Z,90904.41
2023-06-11T04:57:40.790Z,90893.16
2023-06-11T05:00:09.731Z,90890.09
2023-06-11T05:02:38.675Z,90900.69
2023-06-11T05:05:09.050Z,90910.78
2023-06-11T05:07:36.529Z,90910.22
2023-06-11T05:10:03.726Z,90911.44
2023-06-11T05:12:36.999Z,90909.38
2023-06-11T05:15:03.968Z,90909.28
2023-06-11T05:17:30.729Z,90910.34
2023-06-11T05:19:57.620Z,90905.47
2023-06-11T05:22:24.428Z,90912.34
2023-06-11T05:24:51.317Z,90916.50
2023-06-11T05:27:18.698Z,90919.16
2023-06-11T05:29:46.490Z,90916.31
2023-06-11T05:32:16.097Z,90920.63
2023-06-11T05:34:43.254Z,90920.13
2023-06-11T05:37:10.347Z,90923.91
2023-06-11T05:39:37.060Z,90921.06
2023-06-11T05:42:03.951Z,90917.34
2023-06-11T05:44:30.654Z,90932.22
2023-06-11T05:46:57.587Z,90919.84
2023-06-11T05:49:25.626Z,90923.69
2023-06-11T05:51:52.325Z,90918.13
2023-06-11T05:54:19.028Z,90932.03
2023-06-11T05:56:46.310Z,90927.88
2023-06-11T05:59:13.041Z,90933.22
2023-06-11T06:01:39.793Z,90924.34
2023-06-11T06:04:07.228Z,90930.50
2023-06-11T06:06:34.646Z,90924.78
2023-06-11T06:09:01.389Z,90937.41
2023-06-11T06:11:28.136Z,90933.06
2023-06-11T06:13:55.246Z,90935.50
2023-06-11T06:16:21.992Z,90934.22
2023-06-11T06:18:48.705Z,90930.03
2023-06-11T06:21:15.468Z,90934.19
2023-06-11T06:23:42.209Z,90930.13
2023-06-11T06:26:09.147Z,90933.94
2023-06-11T06:28:36.800Z,90921.69
2023-06-11T06:31:03.986Z,90923.19
2023-06-11T06:33:35.258Z,90927.81
2023-06-11T06:36:04.022Z,90932.00
2023-06-11T06:38:32.490Z,90937.03
2023-06-11T06:40:59.254Z,90930.84
2023-06-11T06:43:25.939Z,90931.59
2023-06-11T06:45:52.654Z,90925.38
2023-06-11T06:48:19.616Z,90935.59
2023-06-11T06:50:46.465Z,90935.25
2023-06-11T06:53:13.241Z,90935.81
2023-06-11T06:55:40.077Z,90930.78
2023-06-11T06:58:15.510Z,90922.81
2023-06-11T07:00:42.339Z,90929.41
2023-06-11T07:03:10.435Z,90932.66
2023-06-11T07:05:37.210Z,90922.25
2023-06-11T07:08:04.274Z,90927.63
2023-06-11T07:10:31.505Z,90930.63
2023-06-11T07:13:00.624Z,90931.69
2023-06-11T07:15:27.743Z,90931.53
2023-06-11T07:17:54.542Z,90933.00
2023-06-11T07:20:22.546Z,90922.06
2023-06-11T07:22:49.378Z,90923.00
2023-06-11T07:25:16.736Z,90929.69
2023-06-11T07:27:44.209Z,90921.97
2023-06-11T07:30:12.012Z,90931.03
2023-06-11T07:32:38.912Z,90920.63
2023-06-11T07:35:05.957Z,90923.00
2023-06-11T07:37:33.376Z,90924.34
2023-06-11T07:40:00.105Z,90923.59
2023-06-11T07:42:27.058Z,90933.97
2023-06-11T07:44:53.793Z,90933.09
2023-06-11T07:47:20.857Z,90932.25
2023-06-11T07:49:47.798Z,90931.00
2023-06-11T07:52:14.522Z,90920.66
2023-06-11T07:54:41.234Z,90925.53
2023-06-11T07:57:10.993Z,90928.66
2023-06-11T07:59:38.380Z,90930.41
2023-06-11T08:02:06.141Z,90921.78
2023-06-11T08:04:33.330Z,90930.44
2023-06-11T08:07:00.180Z,90930.72
2023-06-11T08:09:29.982Z,90934.88
2023-06-11T08:11:57.719Z,90934.38
2023-06-11T08:14:24.416Z,90923.69
2023-06-11T08:16:51.390Z,90929.59
2023-06-11T08:19:18.133Z,90932.16
2023-06-11T08:21:44.829Z,90930.50
2023-06-11T08:24:12.166Z,90926.97
2023-06-11T08:26:38.978Z,90932.00
2023-06-11T08:29:05.946Z,90930.50
2023-06-11T08:31:33.645Z,90931.81
2023-06-11T08:34:00.536Z,90930.84
2023-06-11T08:36:27.320Z,90932.75
2023-06-11T08:38:54.018Z,90939.81
2023-06-11T08:41:21.146Z,90933.19
2023-06-11T08:43:48.099Z,90935.19
2023-06-11T08:46:16.167Z,90932.75
2023-06-11T08:48:45.106Z,90936.03
2023-06-11T08:51:13.662Z,90935.38
2023-06-11T08:53:40.984Z,90937.53
2023-06-11T08:56:08.373Z,90933.22
2023-06-11T08:58:36.408Z,90929.72
2023-06-11T09:01:10.562Z,90933.44
2023-06-11T09:03:39.683Z,90931.34
2023-06-11T09:06:06.463Z,90929.78
2023-06-11T09:08:34.833Z,90927.66
2023-06-11T09:11:02.072Z,90931.44
2023-06-11T09:13:29.217Z,90939.13
2023-06-11T09:15:59.294Z,90927.00
2023-06-11T09:18:28.281Z,90932.50
2023-06-11T09:20:57.237Z,90933.84
2023-06-11T09:23:30.975Z,90930.34
2023-06-11T09:26:00.789Z,90937.22
2023-06-11T09:28:32.996Z,90930.66
2023-06-11T09:31:01.462Z,90929.94
2023-06-11T09:33:30.025Z,90943.28
2023-06-11T09:35:56.812Z,90940.72
2023-06-11T09:38:23.513Z,90962.56
2023-06-11T09:40:52.141Z,90959.66
2023-06-11T09:43:25.556Z,90957.91
2023-06-11T09:45:54.322Z,90959.28
2023-06-11T09:48:22.076Z,90960.94
2023-06-11T09:50:51.083Z,90958.91
2023-06-11T09:53:20.472Z,90950.59
2023-06-11T09:56:05.314Z,90939.63
2023-06-11T09:58:38.221Z,90941.50
2023-06-11T10:01:07.357Z,90938.22
2023-06-11T10:03:34.764Z,90934.13
2023-06-11T10:06:06.953Z,90940.53
2023-06-11T10:08:37.037Z,90939.13
2023-06-11T10:11:05.360Z,90940.03
2023-06-11T10:13:36.200Z,90933.97
2023-06-11T10:16:04.461Z,90936.06
2023-06-11T10:18:31.808Z,90939.03
2023-06-11T10:21:04.083Z,90935.78
2023-06-11T10:23:41.639Z,90937.25
2023-06-11T10:26:11.104Z,90936.50
2023-06-11T10:28:42.964Z,90926.00
2023-06-11T10:31:09.630Z,90923.44
2023-06-11T10:33:46.598Z,90927.16
2023-06-11T10:36:26.637Z,90918.56
2023-06-11T10:39:09.896Z,90911.75
2023-06-11T10:41:40.701Z,90916.78
2023-06-11T10:44:08.613Z,90917.34
2023-06-11T10:46:50.568Z,90932.63
2023-06-11T10:49:18.334Z,90925.97
2023-06-11T10:51:47.549Z,90930.97
2023-06-11T10:54:28.064Z,90926.44
2023-06-11T10:56:55.879Z,90922.03
2023-06-11T10:59:23.906Z,90915.88
2023-06-11T11:01:54.502Z,90922.22
2023-06-11T11:04:22.784Z,90929.13
2023-06-11T11:06:54.038Z,90919.84
2023-06-11T11:09:24.208Z,90921.47
2023-06-11T11:11:54.211Z,90917.19
2023-06-11T11:14:21.083Z,90907.78
2023-06-11T11:16:48.937Z,90908.13
2023-06-11T11:19:17.017Z,90903.06
2023-06-11T11:21:52.088Z,90890.31
2023-06-11T11:24:20.206Z,90897.59
2023-06-11T11:26:47.217Z,90898.28
2023-06-11T11:29:14.658Z,90900.22
2023-06-11T11:31:42.312Z,90900.72
2023-06-11T11:34:09.186Z,90907.63
2023-06-11T11:36:36.686Z,90897.34
2023-06-11T11:39:11.965Z,90898.09
2023-06-11T11:42:08.439Z,90901.72
2023-06-11T11:44:42.574Z,90900.75
2023-06-11T11:47:10.674Z,90911.94
2023-06-11T11:49:39.611Z,90899.03
2023-06-11T11:52:07.776Z,90898.75
2023-06-11T11:54:34.626Z,90893.75
2023-06-11T11:57:07.993Z,90900.13
2023-06-11T11:59:39.261Z,90901.16
2023-06-11T12:02:06.382Z,90900.63
2023-06-11T12:04:40.042Z,90901.72
2023-06-11T12:07:08.181Z,90907.53
2023-06-11T12:09:39.934Z,90900.09
2023-06-11T12:12:08.416Z,90893.34
2023-06-11T12:14:35.994Z,90888.59
2023-06-11T12:19:31.216Z,90885.31
2023-06-11T12:21:58.049Z,90892.53
2023-06-11T12:24:25.552Z,90889.69
2023-06-11T12:26:55.343Z,90889.09
2023-06-11T12:29:22.036Z,90888.91
2023-06-11T12:31:48.974Z,90887.47
2023-06-11T12:34:17.007Z,90888.28
2023-06-11T12:36:47.897Z,90894.31
2023-06-11T12:39:17.801Z,90900.28
2023-06-11T12:41:45.945Z,90893.28
2023-06-11T12:44:12.708Z,90891.28
2023-06-11T12:46:39.587Z,90890.34
2023-06-11T12:49:06.313Z,90889.31
2023-06-11T12:51:33.087Z,90893.47
2023-06-11T12:53:59.816Z,90884.09
2023-06-11T12:56:30.106Z,90882.78
2023-06-11T12:58:56.826Z,90886.50
2023-06-11T13:01:23.733Z,90881.66
2023-06-11T13:03:50.528Z,90872.81
2023-06-11T13:06:17.256Z,90882.47
2023-06-11T13:08:44.193Z,90875.22
2023-06-11T13:11:11.513Z,90876.34
2023-06-11T13:13:38.346Z,90870.81
2023-06-11T13:16:05.384Z,90874.53
2023-06-11T13:18:32.403Z,90871.00
2023-06-11T13:21:00.424Z,90871.22
2023-06-11T13:23:32.487Z,90869.41
2023-06-11T13:26:10.151Z,90863.28
2023-06-11T13:28:37.346Z,90864.31
2023-06-11T13:31:06.137Z,90866.22
2023-06-11T13:33:32.868Z,90864.31
2023-06-11T13:35:59.761Z,90859.06
2023-06-11T13:38:26.454Z,90865.03
2023-06-11T13:40:53.306Z,90867.63
2023-06-11T13:43:21.096Z,90858.75
2023-06-11T13:45:48.239Z,90868.38
2023-06-11T13:48:16.766Z,90865.13
2023-06-11T13:50:51.602Z,90853.56
2023-06-11T13:53:22.582Z,90861.06
2023-06-11T13:55:49.420Z,90868.34
2023-06-11T13:58:16.544Z,90872.88
2023-06-11T14:00:44.240Z,90865.63
2023-06-11T14:03:12.035Z,90868.47
2023-06-11T14:05:38.843Z,90876.91
2023-06-11T14:08:06.032Z,90868.97
2023-06-11T14:10:42.134Z,90877.91
2023-06-11T14:13:08.788Z,90862.66
2023-06-11T14:15:35.768Z,90875.91
2023-06-11T14:18:02.811Z,90864.06
2023-06-11T14:20:29.654Z,90862.78
2023-06-11T14:22:56.319Z,90866.34
2023-06-11T14:25:23.059Z,90865.41
2023-06-11T14:27:49.743Z,90869.69
2023-06-11T14:30:16.462Z,90862.91
2023-06-11T14:32:43.258Z,90861.69
2023-06-11T14:35:10.021Z,90852.75
2023-06-11T14:37:36.713Z,90862.63
2023-06-11T14:40:09.272Z,90853.81
2023-06-11T14:42:36.252Z,90867.91
2023-06-11T14:45:03.828Z,90864.97
2023-06-11T14:47:30.808Z,90853.25
2023-06-11T14:49:57.542Z,90866.38
2023-06-11T14:52:24.229Z,90859.59
2023-06-11T14:54:50.993Z,90857.22
2023-06-11T14:57:20.316Z,90859.44
2023-06-11T14:59:47.726Z,90859.16
2023-06-11T15:02:15.477Z,90854.69
2023-06-11T15:04:44.370Z,90859.94
2023-06-11T15:07:33.993Z,90861.63
2023-06-11T15:10:04.771Z,90860.59
2023-06-11T15:12:31.850Z,90866.50
2023-06-11T15:15:01.346Z,90869.13
2023-06-11T15:17:31.079Z,90861.63
2023-06-11T15:19:59.866Z,90856.31
2023-06-11T15:22:26.922Z,90862.78
2023-06-11T15:24:53.648Z,90860.56
2023-06-11T15:27:20.381Z,90863.91
2023-06-11T15:29:47.180Z,90872.97
2023-06-11T15:32:20.934Z,90866.19
2023-06-11T15:34:48.323Z,90870.16
2023-06-11T15:37:15.175Z,90876.72
2023-06-11T15:39:41.902Z,90878.22
2023-06-11T15:42:08.666Z,90881.34
2023-06-11T15:44:35.563Z,90881.78
2023-06-11T15:47:02.341Z,90875.41
2023-06-11T15:49:29.414Z,90885.94
2023-06-11T15:51:56.062Z,90880.03
2023-06-11T15:54:22.816Z,90872.59
2023-06-11T15:56:49.571Z,90876.47
2023-06-11T15:59:16.535Z,90883.59
2023-06-11T16:01:43.854Z,90882.69
2023-06-11T16:04:11.000Z,90891.75
2023-06-11T16:06:37.943Z,90888.00
2023-06-11T16:09:04.718Z,90892.19
2023-06-11T16:11:31.619Z,90897.81
2023-06-11T16:13:58.407Z,90885.78
2023-06-11T16:16:25.247Z,90895.84
2023-06-11T16:18:52.067Z,90903.25
2023-06-11T16:21:18.989Z,90897.66
2023-06-11T16:23:45.930Z,90895.16
2023-06-11T16:26:12.654Z,90901.06
2023-06-11T16:28:39.347Z,90894.53
2023-06-11T16:31:07.366Z,90903.69
2023-06-11T16:33:47.765Z,90897.56
2023-06-11T16:36:20.861Z,90899.28
2023-06-11T16:38:47.673Z,90904.72
2023-06-11T16:41:15.793Z,90894.06
2023-06-11T16:43:43.439Z,90896.13
2023-06-11T16:46:10.416Z,90900.88
2023-06-11T16:48:37.231Z,90902.66
2023-06-11T16:51:04.090Z,90918.00
2023-06-11T16:53:30.939Z,90922.06
2023-06-11T16:55:57.671Z,90921.22
2023-06-11T16:58:25.245Z,90932.34
2023-06-11T17:00:52.560Z,90925.53
2023-06-11T17:03:19.471Z,90933.75
2023-06-11T17:05:46.418Z,90931.72
2023-06-11T17:08:14.417Z,90947.28
2023-06-11T17:10:41.539Z,90949.53
2023-06-11T17:13:08.318Z,90950.13
2023-06-11T17:15:35.172Z,90943.31
2023-06-11T17:18:02.010Z,90955.47
2023-06-11T17:20:28.838Z,90961.44
2023-06-11T17:22:56.588Z,90963.78
2023-06-11T17:25:24.787Z,90965.56
2023-06-11T17:27:51.789Z,90967.81
2023-06-11T17:30:18.995Z,90962.47
2023-06-11T17:32:45.784Z,90981.00
2023-06-11T17:35:13.017Z,90975.47
2023-06-11T17:37:41.007Z,90987.97
2023-06-11T17:40:08.386Z,90997.97
2023-06-11T17:42:35.228Z,90997.13
2023-06-11T17:45:02.046Z,91003.44
2023-06-11T17:47:28.881Z,91002.28
2023-06-11T17:49:55.713Z,91008.69
2023-06-11T17:52:22.461Z,91009.09
2023-06-11T17:54:50.407Z,91004.22
2023-06-11T17:57:17.212Z,91010.25
2023-06-11T17:59:43.901Z,91006.78
2023-06-11T18:02:10.694Z,91014.06
2023-06-11T18:04:37.576Z,91017.66
2023-06-11T18:07:05.281Z,91001.31
2023-06-11T18:09:32.060Z,91006.72
2023-06-11T18:11:58.772Z,91007.28
2023-06-11T18:14:25.604Z,91009.69
2023-06-11T18:16:53.553Z,91014.75
2023-06-11T18:19:21.071Z,91012.81
2023-06-11T18:21:47.878Z,91008.50
2023-06-11T18:26:41.817Z,91011.25
2023-06-11T18:29:08.568Z,91009.84
2023-06-11T18:31:35.963Z,91022.00
2023-06-11T18:34:03.077Z,91020.84
2023-06-11T18:36:29.754Z,91030.78
2023-06-11T18:38:57.692Z,91031.13
2023-06-11T18:41:24.491Z,91032.63
2023-06-11T18:43:51.216Z,91036.34
2023-06-11T18:46:18.010Z,91039.34
2023-06-11T18:48:44.739Z,91039.16
2023-06-11T18:51:11.610Z,91034.59
2023-06-11T18:53:38.334Z,91036.16
2023-06-11T18:56:05.906Z,91036.75
2023-06-11T18:58:41.162Z,91045.56
2023-06-11T19:01:07.983Z,91053.78
2023-06-11T19:03:38.737Z,91045.84
2023-06-11T19:06:06.769Z,91045.59
2023-06-11T19:08:33.492Z,91039.16
2023-06-11T19:11:00.318Z,91049.84
2023-06-11T19:13:27.062Z,91042.59
2023-06-11T19:15:55.119Z,91049.63
2023-06-11T19:18:24.197Z,91049.50
2023-06-11T19:20:51.013Z,91046.28
2023-06-11T19:23:17.989Z,91046.56
2023-06-11T19:25:45.077Z,91041.06
2023-06-11T19:28:11.953Z,91046.50
2023-06-11T19:30:39.845Z,91054.56
2023-06-11T19:33:06.683Z,91054.78
2023-06-11T19:35:33.759Z,91055.50
2023-06-11T19:38:00.620Z,91059.03
2023-06-11T19:40:27.349Z,91049.41
2023-06-11T19:42:54.043Z,91045.53
2023-06-11T19:45:22.275Z,91048.09
2023-06-11T19:47:49.232Z,91029.66
2023-06-11T19:50:16.489Z,91036.19
2023-06-11T19:52:43.403Z,91040.50
2023-06-11T19:55:10.538Z,91036.66
2023-06-11T19:57:37.828Z,91030.88
2023-06-11T20:00:05.132Z,91019.00
2023-06-11T20:02:34.106Z,91022.66
2023-06-11T20:05:02.174Z,91025.59
2023-06-11T20:07:28.994Z,91026.41
2023-06-11T20:09:55.704Z,91025.72
2023-06-11T20:12:22.395Z,91032.84
2023-06-11T20:14:49.195Z,91029.69
2023-06-11T20:17:16.607Z,91024.56
2023-06-11T20:19:43.354Z,91025.69
2023-06-11T20:22:10.167Z,91024.25
2023-06-11T20:24:36.979Z,91028.25
2023-06-11T20:27:03.756Z,91027.28
2023-06-11T20:29:30.662Z,91028.19
2023-06-11T20:31:57.380Z,91022.47
2023-06-11T20:34:24.114Z,91029.75
2023-06-11T20:36:50.983Z,91026.75
2023-06-11T20:39:18.452Z,91029.56
2023-06-11T20:41:45.124Z,91026.53
2023-06-11T20:44:11.876Z,91010.31
2023-06-11T20:46:38.711Z,91011.94
2023-06-11T20:49:05.741Z,91001.50
2023-06-11T20:51:32.607Z,90994.59
2023-06-11T20:53:59.336Z,90983.56
2023-06-11T20:56:26.137Z,90993.81
2023-06-11T20:58:52.867Z,90988.09
2023-06-11T21:01:19.660Z,90982.81
2023-06-11T21:03:47.512Z,90984.31
2023-06-11T21:06:14.311Z,90993.31
2023-06-11T21:08:41.143Z,90987.34
2023-06-11T21:11:07.834Z,90988.28
2023-06-11T21:13:34.574Z,90979.00
2023-06-11T21:16:01.326Z,90981.22
2023-06-11T21:18:28.105Z,90973.81
2023-06-11T21:20:55.904Z,90967.66
2023-06-11T21:23:25.449Z,90966.13
2023-06-11T21:25:52.153Z,90964.94
2023-06-11T21:28:19.254Z,90968.41
2023-06-11T21:30:46.785Z,90974.09
2023-06-11T21:33:13.702Z,90976.81
2023-06-11T21:35:40.404Z,90968.56
2023-06-11T21:38:09.394Z,90957.66
2023-06-11T21:40:36.052Z,90965.13
2023-06-11T21:43:02.819Z,90960.50
2023-06-11T21:45:29.849Z,90968.59
2023-06-11T21:47:56.739Z,90959.88
2023-06-11T21:50:23.607Z,90957.00
2023-06-11T21:52:50.869Z,90945.56
2023-06-11T21:55:18.096Z,90956.72
2023-06-11T21:57:45.144Z,90955.56
2023-06-11T22:00:13.708Z,90952.19
2023-06-11T22:02:44.489Z,90951.59
2023-06-11T22:05:14.574Z,90956.66
2023-06-11T22:07:41.720Z,90953.34
2023-06-11T22:10:10.002Z,90948.81
2023-06-11T22:12:42.971Z,90949.63
2023-06-11T22:15:12.454Z,90943.66
2023-06-11T22:17:40.710Z,90949.31
2023-06-11T22:20:09.530Z,90946.69
2023-06-11T22:22:38.938Z,90945.72
2023-06-11T22:25:09.176Z,90949.03
2023-06-11T22:27:36.559Z,90949.19
2023-06-11T22:30:03.725Z,90949.72
2023-06-11T22:32:30.575Z,90948.56
2023-06-11T22:34:57.416Z,90942.06
2023-06-11T22:37:24.252Z,90947.72
2023-06-11T22:39:52.215Z,90946.19
2023-06-11T22:42:19.588Z,90947.81
2023-06-11T22:44:46.268Z,90947.94
2023-06-11T22:47:17.562Z,90942.53
2023-06-11T22:49:44.313Z,90942.34
2023-06-11T22:52:11.124Z,90946.41
2023-06-11T22:54:39.483Z,90951.25
2023-06-11T22:57:09.471Z,90945.16
2023-06-11T22:59:36.239Z,90943.69
2023-06-11T23:02:03.137Z,90951.88
2023-06-11T23:04:30.120Z,90949.59
2023-06-11T23:06:57.008Z,90944.72
2023-06-11T23:09:24.502Z,90944.63
2023-06-11T23:11:51.543Z,90949.28
2023-06-11T23:14:18.232Z,90940.22
2023-06-11T23:16:49.310Z,90942.13
2023-06-11T23:19:18.698Z,90942.38
2023-06-11T23:21:45.829Z,90934.13
2023-06-11T23:24:12.867Z,90940.78
2023-06-11T23:26:48.747Z,90940.75
2023-06-11T23:29:16.402Z,90936.94
2023-06-11T23:31:43.768Z,90935.34
2023-06-11T23:34:10.917Z,90942.50
2023-06-11T23:36:41.072Z,90935.63
2023-06-11T23:39:09.695Z,90938.50
2023-06-11T23:41:37.385Z,90926.16
2023-06-11T23:44:04.625Z,90932.63
2023-06-11T23:46:35.078Z,90929.28
2023-06-11T23:49:02.255Z,90927.69
2023-06-11T23:51:30.759Z,90925.19
2023-06-11T23:53:57.666Z,90930.22
2023-06-11T23:56:25.610Z,90919.06
2023-06-11T23:58:52.616Z,90930.94
